sensor_id;sensor_type;location;lat;lon;timestamp;pressure;altitude;pressure_sealevel;temperature;humidity
34081;BME280;20358;50.272;19.026;2023-10-08T00:00:42;97949.97;;;18.31;67.55
34081;BME280;20358;50.272;19.026;2023-10-08T00:03:53;97985.78;;;18.14;67.82
34081;BME280;20358;50.272;19.026;2023-10-08T00:07:03;97950.91;;;18.00;68.59
34081;BME280;20358;50.272;19.026;2023-10-08T00:10:13;97950.28;;;17.86;69.06
34081;BME280;20358;50.272;19.026;2023-10-08T00:13:24;97946.94;;;17.84;69.65
34081;BME280;20358;50.272;19.026;2023-10-08T00:16:33;97934.19;;;17.69;70.06
34081;BME280;20358;50.272;19.026;2023-10-08T00:19:43;97944.84;;;17.67;70.26
34081;BME280;20358;50.272;19.026;2023-10-08T00:22:56;97947.75;;;17.64;70.78
34081;BME280;20358;50.272;19.026;2023-10-08T00:26:08;97936.72;;;17.59;71.06
34081;BME280;20358;50.272;19.026;2023-10-08T00:29:19;97933.84;;;17.51;71.40
34081;BME280;20358;50.272;19.026;2023-10-08T00:32:28;97934.63;;;17.53;71.70
34081;BME280;20358;50.272;19.026;2023-10-08T00:35:37;97936.78;;;17.48;71.87
34081;BME280;20358;50.272;19.026;2023-10-08T00:38:45;97929.94;;;17.46;71.61
34081;BME280;20358;50.272;19.026;2023-10-08T00:41:57;97936.31;;;17.43;72.05
34081;BME280;20358;50.272;19.026;2023-10-08T00:45:11;97935.16;;;17.36;71.84
34081;BME280;20358;50.272;19.026;2023-10-08T00:48:20;97940.69;;;17.33;71.93
34081;BME280;20358;50.272;19.026;2023-10-08T00:51:31;97935.38;;;17.33;72.25
34081;BME280;20358;50.272;19.026;2023-10-08T00:54:44;97944.06;;;17.35;72.33
34081;BME280;20358;50.272;19.026;2023-10-08T00:58:05;97948.34;;;17.36;72.33
34081;BME280;20358;50.272;19.026;2023-10-08T01:01:20;97954.63;;;17.35;72.24
34081;BME280;20358;50.272;19.026;2023-10-08T01:04:32;97953.19;;;17.31;72.53
34081;BME280;20358;50.272;19.026;2023-10-08T01:07:43;97953.88;;;17.33;72.79
34081;BME280;20358;50.272;19.026;2023-10-08T01:10:57;97945.97;;;17.33;72.59
34081;BME280;20358;50.272;19.026;2023-10-08T01:14:05;97969.53;;;17.25;72.34
34081;BME280;20358;50.272;19.026;2023-10-08T01:17:16;97947.44;;;16.94;68.99
34081;BME280;20358;50.272;19.026;2023-10-08T01:20:28;97963.25;;;16.62;68.42
34081;BME280;20358;50.272;19.026;2023-10-08T01:23:57;97961.53;;;16.50;69.59
34081;BME280;20358;50.272;19.026;2023-10-08T01:27:10;97963.22;;;16.18;68.69
34081;BME280;20358;50.272;19.026;2023-10-08T01:30:49;97966.66;;;15.96;69.54
34081;BME280;20358;50.272;19.026;2023-10-08T01:33:58;97990.47;;;15.73;70.14
34081;BME280;20358;50.272;19.026;2023-10-08T01:37:07;97988.03;;;15.59;71.01
34081;BME280;20358;50.272;19.026;2023-10-08T01:40:19;97995.31;;;15.31;70.59
34081;BME280;20358;50.272;19.026;2023-10-08T01:43:29;97998.50;;;15.00;71.33
34081;BME280;20358;50.272;19.026;2023-10-08T01:46:36;97991.81;;;14.96;72.06
34081;BME280;20358;50.272;19.026;2023-10-08T01:49:45;97990.66;;;14.87;72.30
34081;BME280;20358;50.272;19.026;2023-10-08T01:52:53;98013.00;;;14.82;71.91
34081;BME280;20358;50.272;19.026;2023-10-08T01:56:03;98004.81;;;14.74;71.93
34081;BME280;20358;50.272;19.026;2023-10-08T01:59:10;97989.03;;;14.74;72.23
34081;BME280;20358;50.272;19.026;2023-10-08T02:02:20;97972.00;;;14.67;71.88
34081;BME280;20358;50.272;19.026;2023-10-08T02:05:28;97977.91;;;14.58;72.54
34081;BME280;20358;50.272;19.026;2023-10-08T02:08:38;97992.75;;;14.59;72.01
34081;BME280;20358;50.272;19.026;2023-10-08T02:11:48;97985.09;;;14.30;71.25
34081;BME280;20358;50.272;19.026;2023-10-08T02:14:57;98029.59;;;14.46;71.50
34081;BME280;20358;50.272;19.026;2023-10-08T02:18:11;98000.34;;;14.38;70.96
34081;BME280;20358;50.272;19.026;2023-10-08T02:21:19;98003.31;;;14.34;70.86
34081;BME280;20358;50.272;19.026;2023-10-08T02:24:32;98012.25;;;14.31;71.48
34081;BME280;20358;50.272;19.026;2023-10-08T02:27:42;98015.06;;;14.28;71.36
34081;BME280;20358;50.272;19.026;2023-10-08T02:30:50;98005.22;;;14.32;71.89
34081;BME280;20358;50.272;19.026;2023-10-08T02:33:57;98009.69;;;14.29;71.64
34081;BME280;20358;50.272;19.026;2023-10-08T02:37:04;98006.53;;;14.24;71.77
34081;BME280;20358;50.272;19.026;2023-10-08T02:40:22;98004.56;;;14.15;71.92
34081;BME280;20358;50.272;19.026;2023-10-08T02:43:35;98003.38;;;14.19;72.42
34081;BME280;20358;50.272;19.026;2023-10-08T02:46:47;98009.38;;;14.21;71.34
34081;BME280;20358;50.272;19.026;2023-10-08T02:49:54;98010.53;;;14.17;71.11
34081;BME280;20358;50.272;19.026;2023-10-08T02:53:04;98038.22;;;14.10;71.68
34081;BME280;20358;50.272;19.026;2023-10-08T02:56:15;98061.03;;;14.10;71.44
34081;BME280;20358;50.272;19.026;2023-10-08T02:59:28;98051.34;;;13.98;71.39
34081;BME280;20358;50.272;19.026;2023-10-08T03:02:43;98050.91;;;13.91;71.39
34081;BME280;20358;50.272;19.026;2023-10-08T03:05:55;98053.53;;;13.91;71.04
34081;BME280;20358;50.272;19.026;2023-10-08T03:09:06;98047.75;;;13.86;71.49
34081;BME280;20358;50.272;19.026;2023-10-08T03:12:19;98042.69;;;13.83;71.56
34081;BME280;20358;50.272;19.026;2023-10-08T03:15:30;98041.03;;;13.82;71.31
34081;BME280;20358;50.272;19.026;2023-10-08T03:18:44;98059.19;;;13.85;71.08
34081;BME280;20358;50.272;19.026;2023-10-08T03:21:53;98063.50;;;13.86;71.21
34081;BME280;20358;50.272;19.026;2023-10-08T03:25:05;98072.56;;;13.82;71.28
34081;BME280;20358;50.272;19.026;2023-10-08T03:28:18;98083.84;;;13.70;71.36
34081;BME280;20358;50.272;19.026;2023-10-08T03:31:31;98091.53;;;13.73;71.70
34081;BME280;20358;50.272;19.026;2023-10-08T03:34:56;98133.88;;;13.68;71.99
34081;BME280;20358;50.272;19.026;2023-10-08T03:38:05;98127.25;;;13.63;72.08
34081;BME280;20358;50.272;19.026;2023-10-08T03:41:31;98123.69;;;13.64;72.49
34081;BME280;20358;50.272;19.026;2023-10-08T03:44:49;98127.91;;;13.66;72.74
34081;BME280;20358;50.272;19.026;2023-10-08T03:48:01;98139.94;;;13.56;72.36
34081;BME280;20358;50.272;19.026;2023-10-08T03:51:22;98144.72;;;13.50;72.31
34081;BME280;20358;50.272;19.026;2023-10-08T03:54:30;98156.38;;;13.46;72.47
34081;BME280;20358;50.272;19.026;2023-10-08T03:57:50;98175.53;;;13.34;72.66
34081;BME280;20358;50.272;19.026;2023-10-08T04:01:04;98181.38;;;13.25;72.70
34081;BME280;20358;50.272;19.026;2023-10-08T04:04:24;98178.19;;;13.20;72.94
34081;BME280;20358;50.272;19.026;2023-10-08T04:07:50;98175.00;;;13.15;72.90
34081;BME280;20358;50.272;19.026;2023-10-08T04:11:19;98182.88;;;13.15;73.00
34081;BME280;20358;50.272;19.026;2023-10-08T04:14:34;98213.53;;;13.14;72.50
34081;BME280;20358;50.272;19.026;2023-10-08T04:17:42;98221.59;;;13.11;72.38
34081;BME280;20358;50.272;19.026;2023-10-08T04:20:57;98232.38;;;13.07;71.85
34081;BME280;20358;50.272;19.026;2023-10-08T04:24:16;98232.81;;;12.99;71.57
34081;BME280;20358;50.272;19.026;2023-10-08T04:27:22;98226.16;;;12.93;71.96
34081;BME280;20358;50.272;19.026;2023-10-08T04:30:33;98198.69;;;12.85;71.89
34081;BME280;20358;50.272;19.026;2023-10-08T04:33:44;98220.91;;;12.93;71.78
34081;BME280;20358;50.272;19.026;2023-10-08T04:36:55;98229.63;;;12.94;72.03
34081;BME280;20358;50.272;19.026;2023-10-08T04:40:11;98218.63;;;12.87;71.71
34081;BME280;20358;50.272;19.026;2023-10-08T04:43:25;98248.44;;;12.86;72.02
34081;BME280;20358;50.272;19.026;2023-10-08T04:46:31;98258.09;;;12.86;72.26
34081;BME280;20358;50.272;19.026;2023-10-08T04:49:50;98265.84;;;12.87;72.29
34081;BME280;20358;50.272;19.026;2023-10-08T04:53:01;98269.44;;;12.86;72.39
34081;BME280;20358;50.272;19.026;2023-10-08T04:56:12;98276.72;;;12.81;72.27
34081;BME280;20358;50.272;19.026;2023-10-08T04:59:25;98297.34;;;12.73;72.45
34081;BME280;20358;50.272;19.026;2023-10-08T05:02:36;98307.91;;;12.72;72.91
34081;BME280;20358;50.272;19.026;2023-10-08T05:05:52;98308.56;;;12.75;72.92
34081;BME280;20358;50.272;19.026;2023-10-08T05:09:27;98276.88;;;12.64;72.82
34081;BME280;20358;50.272;19.026;2023-10-08T05:12:46;98300.59;;;12.77;73.17
34081;BME280;20358;50.272;19.026;2023-10-08T05:16:05;98284.00;;;12.76;73.09
34081;BME280;20358;50.272;19.026;2023-10-08T05:19:32;98273.34;;;12.79;72.98
34081;BME280;20358;50.272;19.026;2023-10-08T05:23:06;98284.56;;;12.81;72.38
34081;BME280;20358;50.272;19.026;2023-10-08T05:26:28;98334.81;;;12.75;72.47
34081;BME280;20358;50.272;19.026;2023-10-08T05:29:47;98344.34;;;12.76;72.50
34081;BME280;20358;50.272;19.026;2023-10-08T05:33:08;98339.59;;;12.83;72.62
34081;BME280;20358;50.272;19.026;2023-10-08T05:36:29;98353.63;;;12.82;72.87
34081;BME280;20358;50.272;19.026;2023-10-08T05:39:41;98353.91;;;12.77;72.69
34081;BME280;20358;50.272;19.026;2023-10-08T05:43:00;98368.81;;;12.77;72.52
34081;BME280;20358;50.272;19.026;2023-10-08T05:46:16;98373.41;;;12.73;72.62
34081;BME280;20358;50.272;19.026;2023-10-08T05:49:39;98391.09;;;12.70;72.21
34081;BME280;20358;50.272;19.026;2023-10-08T05:52:57;98373.91;;;12.64;72.55
34081;BME280;20358;50.272;19.026;2023-10-08T05:56:10;98372.03;;;12.66;72.49
34081;BME280;20358;50.272;19.026;2023-10-08T05:59:48;98376.25;;;12.69;72.76
34081;BME280;20358;50.272;19.026;2023-10-08T06:03:20;98389.66;;;12.64;72.34
34081;BME280;20358;50.272;19.026;2023-10-08T06:06:40;98390.41;;;12.66;72.54
34081;BME280;20358;50.272;19.026;2023-10-08T06:10:10;98395.31;;;12.72;72.40
34081;BME280;20358;50.272;19.026;2023-10-08T06:13:29;98421.38;;;12.75;72.68
34081;BME280;20358;50.272;19.026;2023-10-08T06:16:53;98424.84;;;12.76;72.87
34081;BME280;20358;50.272;19.026;2023-10-08T06:20:16;98430.41;;;12.85;72.70
34081;BME280;20358;50.272;19.026;2023-10-08T06:23:22;98441.75;;;12.86;72.05
34081;BME280;20358;50.272;19.026;2023-10-08T06:26:38;98434.19;;;12.95;71.78
34081;BME280;20358;50.272;19.026;2023-10-08T06:29:52;98434.09;;;12.97;71.35
34081;BME280;20358;50.272;19.026;2023-10-08T06:33:01;98440.69;;;13.04;71.25
34081;BME280;20358;50.272;19.026;2023-10-08T06:36:10;98434.59;;;13.03;71.14
34081;BME280;20358;50.272;19.026;2023-10-08T06:39:18;98446.47;;;13.11;70.69
34081;BME280;20358;50.272;19.026;2023-10-08T06:42:36;98468.47;;;13.08;71.08
34081;BME280;20358;50.272;19.026;2023-10-08T06:45:45;98480.59;;;13.11;70.61
34081;BME280;20358;50.272;19.026;2023-10-08T06:48:58;98491.50;;;13.19;70.30
34081;BME280;20358;50.272;19.026;2023-10-08T06:52:11;98492.81;;;13.26;70.07
34081;BME280;20358;50.272;19.026;2023-10-08T06:55:19;98501.25;;;13.17;69.83
34081;BME280;20358;50.272;19.026;2023-10-08T06:58:27;98489.44;;;13.24;69.89
34081;BME280;20358;50.272;19.026;2023-10-08T07:01:35;98482.31;;;13.26;69.91
34081;BME280;20358;50.272;19.026;2023-10-08T07:04:51;98495.69;;;13.37;69.65
34081;BME280;20358;50.272;19.026;2023-10-08T07:08:03;98500.63;;;13.27;69.19
34081;BME280;20358;50.272;19.026;2023-10-08T07:11:10;98496.22;;;13.28;69.67
34081;BME280;20358;50.272;19.026;2023-10-08T07:14:19;98519.66;;;13.31;70.15
34081;BME280;20358;50.272;19.026;2023-10-08T07:17:25;98533.16;;;13.25;68.95
34081;BME280;20358;50.272;19.026;2023-10-08T07:20:53;98531.63;;;13.21;69.11
34081;BME280;20358;50.272;19.026;2023-10-08T07:24:12;98531.44;;;13.24;68.96
34081;BME280;20358;50.272;19.026;2023-10-08T07:27:25;98563.38;;;12.85;69.65
34081;BME280;20358;50.272;19.026;2023-10-08T07:30:40;98554.63;;;13.00;70.01
34081;BME280;20358;50.272;19.026;2023-10-08T07:33:50;98541.44;;;13.01;69.88
34081;BME280;20358;50.272;19.026;2023-10-08T07:37:02;98548.38;;;13.02;69.75
34081;BME280;20358;50.272;19.026;2023-10-08T07:40:12;98566.28;;;13.12;69.91
34081;BME280;20358;50.272;19.026;2023-10-08T07:43:19;98565.16;;;13.16;69.77
34081;BME280;20358;50.272;19.026;2023-10-08T07:46:26;98577.69;;;13.11;68.78
34081;BME280;20358;50.272;19.026;2023-10-08T07:49:33;98564.66;;;13.25;68.81
34081;BME280;20358;50.272;19.026;2023-10-08T07:52:52;98574.13;;;13.43;69.03
34081;BME280;20358;50.272;19.026;2023-10-08T07:56:00;98588.19;;;13.42;68.05
34081;BME280;20358;50.272;19.026;2023-10-08T07:59:10;98601.88;;;13.47;67.86
34081;BME280;20358;50.272;19.026;2023-10-08T08:02:17;98615.44;;;13.55;67.95
34081;BME280;20358;50.272;19.026;2023-10-08T08:05:26;98632.91;;;13.56;67.27
34081;BME280;20358;50.272;19.026;2023-10-08T08:08:37;98633.53;;;13.75;67.09
34081;BME280;20358;50.272;19.026;2023-10-08T08:11:47;98621.81;;;13.81;65.46
34081;BME280;20358;50.272;19.026;2023-10-08T08:14:56;98621.78;;;13.96;66.11
34081;BME280;20358;50.272;19.026;2023-10-08T08:18:06;98647.13;;;13.97;64.01
34081;BME280;20358;50.272;19.026;2023-10-08T08:21:22;98635.50;;;14.01;62.97
34081;BME280;20358;50.272;19.026;2023-10-08T08:24:40;98626.13;;;14.11;63.52
34081;BME280;20358;50.272;19.026;2023-10-08T08:27:47;98622.69;;;14.25;63.42
34081;BME280;20358;50.272;19.026;2023-10-08T08:31:02;98631.28;;;14.43;62.71
34081;BME280;20358;50.272;19.026;2023-10-08T08:34:16;98638.44;;;14.41;60.70
34081;BME280;20358;50.272;19.026;2023-10-08T08:37:24;98635.06;;;14.39;60.39
34081;BME280;20358;50.272;19.026;2023-10-08T08:40:35;98638.91;;;14.33;59.73
34081;BME280;20358;50.272;19.026;2023-10-08T08:43:48;98649.63;;;14.44;60.03
34081;BME280;20358;50.272;19.026;2023-10-08T08:47:00;98641.41;;;14.35;60.01
34081;BME280;20358;50.272;19.026;2023-10-08T08:50:14;98647.84;;;14.15;60.67
34081;BME280;20358;50.272;19.026;2023-10-08T08:53:22;98674.72;;;14.20;60.93
34081;BME280;20358;50.272;19.026;2023-10-08T08:56:32;98675.75;;;14.17;59.49
34081;BME280;20358;50.272;19.026;2023-10-08T08:59:49;98678.25;;;14.05;59.18
34081;BME280;20358;50.272;19.026;2023-10-08T09:02:59;98740.44;;;13.90;58.37
34081;BME280;20358;50.272;19.026;2023-10-08T09:06:10;98691.41;;;13.89;56.84
34081;BME280;20358;50.272;19.026;2023-10-08T09:09:17;98692.34;;;13.88;55.99
34081;BME280;20358;50.272;19.026;2023-10-08T09:12:32;98686.91;;;13.91;55.64
34081;BME280;20358;50.272;19.026;2023-10-08T09:15:42;98697.41;;;13.91;52.08
34081;BME280;20358;50.272;19.026;2023-10-08T09:18:48;98685.91;;;13.78;52.51
34081;BME280;20358;50.272;19.026;2023-10-08T09:22:04;98691.00;;;13.81;53.37
34081;BME280;20358;50.272;19.026;2023-10-08T09:25:20;98717.09;;;14.00;53.02
34081;BME280;20358;50.272;19.026;2023-10-08T09:28:32;98720.03;;;14.09;52.43
34081;BME280;20358;50.272;19.026;2023-10-08T09:31:41;98707.06;;;14.06;52.74
34081;BME280;20358;50.272;19.026;2023-10-08T09:34:52;98711.81;;;14.15;53.29
34081;BME280;20358;50.272;19.026;2023-10-08T09:38:02;98729.63;;;14.10;50.86
34081;BME280;20358;50.272;19.026;2023-10-08T09:41:14;98748.09;;;14.09;50.25
34081;BME280;20358;50.272;19.026;2023-10-08T09:44:25;98753.91;;;14.00;48.38
34081;BME280;20358;50.272;19.026;2023-10-08T09:47:38;98763.22;;;14.05;47.73
34081;BME280;20358;50.272;19.026;2023-10-08T09:50:52;98734.53;;;14.01;45.62
34081;BME280;20358;50.272;19.026;2023-10-08T09:54:11;98731.50;;;14.08;45.66
34081;BME280;20358;50.272;19.026;2023-10-08T09:57:23;98735.47;;;14.15;44.65
34081;BME280;20358;50.272;19.026;2023-10-08T10:00:33;98729.63;;;14.10;45.19
34081;BME280;20358;50.272;19.026;2023-10-08T10:03:41;98755.75;;;14.13;45.00
34081;BME280;20358;50.272;19.026;2023-10-08T10:06:49;98736.03;;;14.20;45.68
34081;BME280;20358;50.272;19.026;2023-10-08T10:09:55;98754.88;;;14.28;45.81
34081;BME280;20358;50.272;19.026;2023-10-08T10:13:05;98747.03;;;14.27;43.94
34081;BME280;20358;50.272;19.026;2023-10-08T10:16:17;98781.16;;;14.28;42.15
34081;BME280;20358;50.272;19.026;2023-10-08T10:19:27;98765.56;;;14.25;42.81
34081;BME280;20358;50.272;19.026;2023-10-08T10:22:35;98788.19;;;14.28;41.78
34081;BME280;20358;50.272;19.026;2023-10-08T10:25:42;98756.75;;;14.26;42.36
34081;BME280;20358;50.272;19.026;2023-10-08T10:29:18;98769.22;;;14.39;42.69
34081;BME280;20358;50.272;19.026;2023-10-08T10:32:28;98777.56;;;14.29;41.94
34081;BME280;20358;50.272;19.026;2023-10-08T10:35:37;98776.25;;;14.38;42.07
34081;BME280;20358;50.272;19.026;2023-10-08T10:38:47;98784.66;;;14.45;41.51
34081;BME280;20358;50.272;19.026;2023-10-08T10:42:02;98792.13;;;14.37;41.48
34081;BME280;20358;50.272;19.026;2023-10-08T10:45:14;98807.63;;;14.25;42.20
34081;BME280;20358;50.272;19.026;2023-10-08T10:48:49;98791.53;;;14.32;41.00
34081;BME280;20358;50.272;19.026;2023-10-08T10:52:11;98791.69;;;14.28;38.28
34081;BME280;20358;50.272;19.026;2023-10-08T10:55:20;98809.34;;;14.26;38.83
34081;BME280;20358;50.272;19.026;2023-10-08T10:58:35;98829.53;;;14.10;38.81
34081;BME280;20358;50.272;19.026;2023-10-08T11:01:47;98796.53;;;14.20;40.12
34081;BME280;20358;50.272;19.026;2023-10-08T11:04:58;98809.00;;;14.01;40.08
34081;BME280;20358;50.272;19.026;2023-10-08T11:08:10;98810.59;;;14.04;40.24
34081;BME280;20358;50.272;19.026;2023-10-08T11:11:19;98806.63;;;14.12;40.00
34081;BME280;20358;50.272;19.026;2023-10-08T11:14:31;98823.59;;;14.07;39.44
34081;BME280;20358;50.272;19.026;2023-10-08T11:17:45;98820.03;;;13.92;38.96
34081;BME280;20358;50.272;19.026;2023-10-08T11:21:06;98801.91;;;13.72;38.07
34081;BME280;20358;50.272;19.026;2023-10-08T11:24:29;98815.44;;;13.96;37.39
34081;BME280;20358;50.272;19.026;2023-10-08T11:27:42;98813.00;;;14.08;37.45
34081;BME280;20358;50.272;19.026;2023-10-08T11:30:49;98816.81;;;14.18;36.02
34081;BME280;20358;50.272;19.026;2023-10-08T11:33:59;98812.31;;;14.20;35.64
34081;BME280;20358;50.272;19.026;2023-10-08T11:37:29;98810.69;;;14.18;36.11
34081;BME280;20358;50.272;19.026;2023-10-08T11:40:38;98811.34;;;14.21;35.94
34081;BME280;20358;50.272;19.026;2023-10-08T11:43:54;98818.84;;;14.13;35.70
34081;BME280;20358;50.272;19.026;2023-10-08T11:47:05;98818.47;;;14.19;36.16
34081;BME280;20358;50.272;19.026;2023-10-08T11:50:25;98833.09;;;14.09;33.67
34081;BME280;20358;50.272;19.026;2023-10-08T11:53:44;98822.72;;;14.06;33.84
34081;BME280;20358;50.272;19.026;2023-10-08T11:56:51;98838.34;;;14.09;34.75
34081;BME280;20358;50.272;19.026;2023-10-08T11:59:59;98831.56;;;14.05;34.88
34081;BME280;20358;50.272;19.026;2023-10-08T12:03:36;98830.72;;;14.05;34.65
34081;BME280;20358;50.272;19.026;2023-10-08T12:06:43;98827.66;;;14.12;35.06
34081;BME280;20358;50.272;19.026;2023-10-08T12:09:53;98842.59;;;14.12;35.33
34081;BME280;20358;50.272;19.026;2023-10-08T12:12:59;98844.56;;;14.08;35.65
34081;BME280;20358;50.272;19.026;2023-10-08T12:16:17;98836.03;;;14.19;35.75
34081;BME280;20358;50.272;19.026;2023-10-08T12:19:25;98850.03;;;14.19;35.92
34081;BME280;20358;50.272;19.026;2023-10-08T12:22:35;98840.03;;;14.26;36.49
34081;BME280;20358;50.272;19.026;2023-10-08T12:25:48;98827.50;;;14.15;36.44
34081;BME280;20358;50.272;19.026;2023-10-08T12:28:56;98844.44;;;14.25;36.76
34081;BME280;20358;50.272;19.026;2023-10-08T12:32:10;98835.13;;;14.36;36.97
34081;BME280;20358;50.272;19.026;2023-10-08T12:35:23;98868.28;;;14.22;36.78
34081;BME280;20358;50.272;19.026;2023-10-08T12:38:29;98850.56;;;14.26;36.09
34081;BME280;20358;50.272;19.026;2023-10-08T12:41:41;98858.06;;;14.34;35.00
34081;BME280;20358;50.272;19.026;2023-10-08T12:44:47;98868.41;;;14.37;34.79
34081;BME280;20358;50.272;19.026;2023-10-08T12:47:54;98853.94;;;14.28;34.84
34081;BME280;20358;50.272;19.026;2023-10-08T12:51:03;98857.78;;;14.22;34.44
34081;BME280;20358;50.272;19.026;2023-10-08T12:54:15;98886.38;;;14.28;35.04
34081;BME280;20358;50.272;19.026;2023-10-08T12:57:27;98861.75;;;14.29;35.12
34081;BME280;20358;50.272;19.026;2023-10-08T13:00:40;98881.59;;;14.19;34.43
34081;BME280;20358;50.272;19.026;2023-10-08T13:03:52;98879.31;;;14.13;34.64
34081;BME280;20358;50.272;19.026;2023-10-08T13:07:09;98892.47;;;14.13;34.90
34081;BME280;20358;50.272;19.026;2023-10-08T13:10:16;98899.06;;;14.05;34.46
34081;BME280;20358;50.272;19.026;2023-10-08T13:13:27;98888.31;;;14.09;35.19
34081;BME280;20358;50.272;19.026;2023-10-08T13:16:34;98884.38;;;14.16;34.53
34081;BME280;20358;50.272;19.026;2023-10-08T13:19:43;98869.22;;;14.21;34.64
34081;BME280;20358;50.272;19.026;2023-10-08T13:22:52;98860.75;;;14.32;35.19
34081;BME280;20358;50.272;19.026;2023-10-08T13:25:59;98878.34;;;14.32;34.68
34081;BME280;20358;50.272;19.026;2023-10-08T13:29:15;98891.28;;;14.35;35.19
34081;BME280;20358;50.272;19.026;2023-10-08T13:32:22;98882.59;;;14.34;35.31
34081;BME280;20358;50.272;19.026;2023-10-08T13:35:29;98898.56;;;14.29;35.22
34081;BME280;20358;50.272;19.026;2023-10-08T13:38:37;98917.06;;;14.28;35.65
34081;BME280;20358;50.272;19.026;2023-10-08T13:41:43;98896.78;;;14.30;34.40
34081;BME280;20358;50.272;19.026;2023-10-08T13:44:55;98909.78;;;14.17;33.92
34081;BME280;20358;50.272;19.026;2023-10-08T13:48:10;98899.25;;;14.17;34.59
34081;BME280;20358;50.272;19.026;2023-10-08T13:51:19;98940.59;;;13.98;33.58
34081;BME280;20358;50.272;19.026;2023-10-08T13:54:28;98909.59;;;14.05;33.89
34081;BME280;20358;50.272;19.026;2023-10-08T13:57:39;98907.56;;;14.10;34.06
34081;BME280;20358;50.272;19.026;2023-10-08T14:00:49;98911.63;;;14.15;34.27
34081;BME280;20358;50.272;19.026;2023-10-08T14:03:56;98930.97;;;14.14;34.07
34081;BME280;20358;50.272;19.026;2023-10-08T14:07:11;98910.94;;;14.12;34.31
34081;BME280;20358;50.272;19.026;2023-10-08T14:10:22;98923.84;;;14.16;34.46
34081;BME280;20358;50.272;19.026;2023-10-08T14:13:32;98911.81;;;14.12;34.28
34081;BME280;20358;50.272;19.026;2023-10-08T14:16:46;98938.41;;;14.06;33.95
34081;BME280;20358;50.272;19.026;2023-10-08T14:19:55;98921.88;;;14.04;33.91
34081;BME280;20358;50.272;19.026;2023-10-08T14:23:14;98924.84;;;13.98;33.83
34081;BME280;20358;50.272;19.026;2023-10-08T14:26:25;98928.75;;;14.07;34.45
34081;BME280;20358;50.272;19.026;2023-10-08T14:29:39;98922.28;;;13.97;34.63
34081;BME280;20358;50.272;19.026;2023-10-08T14:32:49;98939.97;;;14.10;34.89
34081;BME280;20358;50.272;19.026;2023-10-08T14:36:03;98939.81;;;14.13;35.39
34081;BME280;20358;50.272;19.026;2023-10-08T14:39:25;98940.84;;;14.26;35.69
34081;BME280;20358;50.272;19.026;2023-10-08T14:42:44;98940.66;;;14.29;35.58
34081;BME280;20358;50.272;19.026;2023-10-08T14:46:06;98957.44;;;14.27;35.91
34081;BME280;20358;50.272;19.026;2023-10-08T14:49:17;98966.50;;;14.21;35.55
34081;BME280;20358;50.272;19.026;2023-10-08T14:52:25;98987.81;;;14.17;35.48
34081;BME280;20358;50.272;19.026;2023-10-08T14:55:35;98986.28;;;14.13;36.02
34081;BME280;20358;50.272;19.026;2023-10-08T14:58:41;98975.81;;;14.11;35.90
34081;BME280;20358;50.272;19.026;2023-10-08T15:01:48;98993.72;;;14.05;35.80
34081;BME280;20358;50.272;19.026;2023-10-08T15:04:59;98968.59;;;13.99;35.58
34081;BME280;20358;50.272;19.026;2023-10-08T15:08:09;99000.66;;;13.90;35.41
34081;BME280;20358;50.272;19.026;2023-10-08T15:11:20;98985.03;;;13.87;35.82
34081;BME280;20358;50.272;19.026;2023-10-08T15:14:32;98996.31;;;13.89;35.63
34081;BME280;20358;50.272;19.026;2023-10-08T15:17:41;98982.31;;;13.89;35.70
34081;BME280;20358;50.272;19.026;2023-10-08T15:20:51;98984.88;;;13.90;36.15
34081;BME280;20358;50.272;19.026;2023-10-08T15:23:57;98996.16;;;13.92;36.41
34081;BME280;20358;50.272;19.026;2023-10-08T15:27:06;99004.03;;;13.92;36.59
34081;BME280;20358;50.272;19.026;2023-10-08T15:30:14;98996.47;;;13.86;36.79
34081;BME280;20358;50.272;19.026;2023-10-08T15:33:22;99011.06;;;13.92;36.94
34081;BME280;20358;50.272;19.026;2023-10-08T15:36:32;99012.53;;;13.97;37.39
34081;BME280;20358;50.272;19.026;2023-10-08T15:39:43;99028.47;;;13.94;37.60
34081;BME280;20358;50.272;19.026;2023-10-08T15:42:51;99030.19;;;13.95;37.93
34081;BME280;20358;50.272;19.026;2023-10-08T15:46:10;99030.63;;;13.86;37.77
34081;BME280;20358;50.272;19.026;2023-10-08T15:49:16;99017.03;;;13.78;37.30
34081;BME280;20358;50.272;19.026;2023-10-08T15:52:27;99013.50;;;13.79;37.55
34081;BME280;20358;50.272;19.026;2023-10-08T15:55:34;99019.75;;;13.77;37.79
34081;BME280;20358;50.272;19.026;2023-10-08T15:58:44;99022.63;;;13.72;37.70
34081;BME280;20358;50.272;19.026;2023-10-08T16:01:51;99030.66;;;13.69;38.17
34081;BME280;20358;50.272;19.026;2023-10-08T16:04:58;99025.31;;;13.71;38.16
34081;BME280;20358;50.272;19.026;2023-10-08T16:08:08;99033.28;;;13.69;38.64
34081;BME280;20358;50.272;19.026;2023-10-08T16:11:15;99029.84;;;13.67;39.04
34081;BME280;20358;50.272;19.026;2023-10-08T16:14:22;99038.13;;;13.59;39.07
34081;BME280;20358;50.272;19.026;2023-10-08T16:17:29;99034.38;;;13.48;39.39
34081;BME280;20358;50.272;19.026;2023-10-08T16:20:35;99035.38;;;13.45;39.71
34081;BME280;20358;50.272;19.026;2023-10-08T16:23:47;99050.56;;;13.39;39.88
34081;BME280;20358;50.272;19.026;2023-10-08T16:26:55;99056.13;;;13.33;39.95
34081;BME280;20358;50.272;19.026;2023-10-08T16:30:05;99051.03;;;13.30;40.38
34081;BME280;20358;50.272;19.026;2023-10-08T16:33:14;99062.53;;;13.27;40.42
34081;BME280;20358;50.272;19.026;2023-10-08T16:36:25;99065.53;;;13.20;40.60
34081;BME280;20358;50.272;19.026;2023-10-08T16:39:35;99077.22;;;13.13;40.96
34081;BME280;20358;50.272;19.026;2023-10-08T16:42:45;99076.88;;;13.01;41.11
34081;BME280;20358;50.272;19.026;2023-10-08T16:45:52;99084.66;;;13.03;41.19